Time;durP1;ratioP1;P1;durP2;ratioP2;P2;SDS_P1;SDS_P2;PMS_P1;PMS_P2;Temp;Humidity;BMP_temperature;BMP_pressure;BME280_temperature;BME280_humidity;BME280_pressure;Samples;Min_cycle;Max_cycle;Signal;HPM_P1;HPM_P2
2023/08/09 00:01:20;;;;;;;2.15;0.80;;;11.60;99.90;;;;;;5089069;28;20138;-78
2023/08/09 00:03:45;;;;;;;1.10;0.70;;;11.60;99.90;;;;;;5089410;28;20433;-77
2023/08/09 00:06:11;;;;;;;1.33;0.60;;;11.60;99.90;;;;;;5071383;28;20510;-77
2023/08/09 00:08:37;;;;;;;2.30;0.80;;;11.60;99.90;;;;;;5088194;28;20039;-77
2023/08/09 00:11:02;;;;;;;1.45;0.60;;;11.60;99.90;;;;;;5068963;28;20395;-77
2023/08/09 00:13:28;;;;;;;2.28;0.68;;;11.60;99.90;;;;;;5087212;28;20097;-77
2023/08/09 00:15:54;;;;;;;0.82;0.65;;;11.60;99.90;;;;;;5089654;28;20040;-77
2023/08/09 00:18:20;;;;;;;1.88;0.70;;;11.60;99.90;;;;;;5059819;28;20162;-77
2023/08/09 00:20:46;;;;;;;0.80;0.50;;;11.60;99.90;;;;;;5067542;28;20123;-77
2023/08/09 00:23:13;;;;;;;1.02;0.55;;;11.60;99.90;;;;;;5088148;28;20046;-77
2023/08/09 00:25:40;;;;;;;1.58;0.70;;;11.50;99.90;;;;;;5087955;28;20544;-77
2023/08/09 00:28:06;;;;;;;1.58;0.70;;;11.50;99.90;;;;;;5088514;28;20097;-77
2023/08/09 00:30:32;;;;;;;1.65;0.63;;;11.50;99.90;;;;;;5087722;28;20046;-77
2023/08/09 00:32:57;;;;;;;0.70;0.43;;;11.50;99.90;;;;;;5085846;28;20040;-77
2023/08/09 00:35:23;;;;;;;1.05;0.50;;;11.50;99.90;;;;;;5072812;28;20043;-77
2023/08/09 00:37:49;;;;;;;0.50;0.35;;;11.50;99.90;;;;;;5088941;28;20052;-77
2023/08/09 00:40:14;;;;;;;1.58;0.93;;;11.40;99.90;;;;;;5088244;28;20052;-78
2023/08/09 00:42:41;;;;;;;1.17;0.50;;;11.40;99.90;;;;;;5087685;28;20473;-78
2023/08/09 00:45:09;;;;;;;1.98;0.75;;;11.40;99.90;;;;;;5070591;28;20032;-78
2023/08/09 00:47:35;;;;;;;0.90;0.70;;;11.40;99.90;;;;;;5088229;28;20043;-77
2023/08/09 00:50:01;;;;;;;1.00;0.47;;;11.30;99.90;;;;;;5087165;28;20043;-77
2023/08/09 00:52:27;;;;;;;;;;;11.30;99.90;;;;;;5087472;28;20046;-77
2023/08/09 00:54:53;;;;;;;0.80;0.45;;;11.30;99.90;;;;;;5088094;28;20007;-77
2023/08/09 00:57:19;;;;;;;0.88;0.50;;;11.20;99.90;;;;;;5088040;28;20044;-77
2023/08/09 00:59:45;;;;;;;2.28;0.60;;;11.20;99.90;;;;;;5087478;28;20129;-78
2023/08/09 01:02:11;;;;;;;0.95;0.60;;;11.20;99.90;;;;;;5087990;28;20229;-78
2023/08/09 01:04:38;;;;;;;0.80;0.50;;;11.20;99.90;;;;;;5087543;28;20105;-78
2023/08/09 01:07:31;;;;;;;1.33;0.55;;;11.20;99.90;;;;;;5087077;28;20044;-77
2023/08/09 01:10:18;;;;;;;1.45;0.47;;;11.20;99.90;;;;;;5121091;28;20076;-77
2023/08/09 01:12:58;;;;;;;0.40;0.40;;;11.20;99.90;;;;;;5088205;28;20032;-77
2023/08/09 01:15:25;;;;;;;1.48;0.60;;;11.20;99.90;;;;;;5090045;28;20047;-77
2023/08/09 01:17:52;;;;;;;0.50;0.50;;;11.10;99.90;;;;;;5056167;28;20054;-77
2023/08/09 01:20:20;;;;;;;0.57;0.50;;;11.10;99.90;;;;;;5072821;28;20434;-77
2023/08/09 01:23:02;;;;;;;0.70;0.40;;;11.00;99.90;;;;;;5089717;28;20044;-77
2023/08/09 01:25:28;;;;;;;1.17;0.45;;;11.10;99.90;;;;;;5093489;28;20044;-77
2023/08/09 01:27:54;;;;;;;0.40;0.40;;;11.10;99.90;;;;;;5093235;28;20048;-77
2023/08/09 01:30:20;;;;;;;;;;;11.00;99.90;;;;;;5093693;28;20036;-77
2023/08/09 01:32:46;;;;;;;1.20;0.40;;;11.10;99.90;;;;;;5094067;28;20270;-77
2023/08/09 01:35:12;;;;;;;0.70;0.40;;;11.10;99.90;;;;;;5076874;28;20044;-77
2023/08/09 01:37:49;;;;;;;1.80;0.60;;;11.10;99.90;;;;;;5093219;28;20040;-77
2023/08/09 01:40:17;;;;;;;0.40;0.35;;;11.10;99.90;;;;;;5093122;28;20397;-77
2023/08/09 01:42:44;;;;;;;1.02;0.50;;;11.00;99.90;;;;;;5075946;28;20115;-77
2023/08/09 01:45:12;;;;;;;0.55;0.40;;;11.00;99.90;;;;;;5110180;28;20054;-77
2023/08/09 01:47:40;;;;;;;1.95;0.60;;;11.00;99.90;;;;;;5093700;28;20061;-77
2023/08/09 01:50:15;;;;;;;0.35;0.35;;;11.00;99.90;;;;;;5077049;28;20031;-77
2023/08/09 01:52:41;;;;;;;0.60;0.40;;;11.00;99.90;;;;;;5093257;28;20118;-77
2023/08/09 01:55:07;;;;;;;0.65;0.43;;;10.90;99.90;;;;;;5124329;27;20135;-77
2023/08/09 01:57:33;;;;;;;0.75;0.40;;;10.90;99.90;;;;;;5088500;28;20093;-77
2023/08/09 01:59:59;;;;;;;0.90;0.50;;;10.90;99.90;;;;;;5092825;28;20379;-77
2023/08/09 02:02:24;;;;;;;;;;;10.90;99.90;;;;;;5074823;28;20099;-77
2023/08/09 02:04:50;;;;;;;0.90;0.40;;;10.90;99.90;;;;;;5092424;28;19967;-77
2023/08/09 02:07:16;;;;;;;1.27;0.57;;;10.90;99.90;;;;;;5091941;28;20104;-77
2023/08/09 02:09:41;;;;;;;0.82;0.40;;;10.90;99.90;;;;;;5092259;28;20040;-77
2023/08/09 02:12:07;;;;;;;1.15;0.40;;;10.90;99.90;;;;;;5093091;28;20040;-77
2023/08/09 02:14:33;;;;;;;1.52;0.60;;;10.80;99.90;;;;;;5090858;28;20032;-76
2023/08/09 02:16:59;;;;;;;0.75;0.38;;;10.80;99.90;;;;;;5092342;28;20040;-77
2023/08/09 02:19:24;;;;;;;1.08;0.50;;;10.80;99.90;;;;;;5091874;28;20189;-77
2023/08/09 02:21:50;;;;;;;0.43;0.40;;;10.80;99.90;;;;;;5087722;28;20443;-77
2023/08/09 02:24:16;;;;;;;0.70;0.50;;;10.80;99.90;;;;;;5085895;28;20032;-77
2023/08/09 02:26:42;;;;;;;0.43;0.30;;;10.80;99.90;;;;;;5091719;28;20039;-77
2023/08/09 02:29:08;;;;;;;0.35;0.20;;;10.80;99.90;;;;;;5091737;28;20032;-77
2023/08/09 02:31:34;;;;;;;0.68;0.40;;;10.80;99.90;;;;;;5091645;28;20456;-77
2023/08/09 02:34:00;;;;;;;0.80;0.38;;;10.80;99.90;;;;;;5077154;28;20055;-77
2023/08/09 02:36:26;;;;;;;;;;;10.80;99.90;;;;;;5087192;28;20177;-77
2023/08/09 02:38:52;;;;;;;0.45;0.40;;;10.70;99.90;;;;;;5074887;28;20061;-77
2023/08/09 02:41:19;;;;;;;0.45;0.45;;;10.70;99.90;;;;;;5086584;28;20560;-77
2023/08/09 02:43:45;;;;;;;1.05;0.50;;;10.70;99.90;;;;;;5082860;28;20043;-77
2023/08/09 02:46:12;;;;;;;1.23;0.50;;;10.70;99.90;;;;;;5107203;28;20482;-77
2023/08/09 02:48:38;;;;;;;1.17;0.60;;;10.70;99.90;;;;;;5091375;28;20435;-77
2023/08/09 02:51:04;;;;;;;1.08;0.50;;;10.70;99.90;;;;;;5076995;28;20049;-77
2023/08/09 02:53:59;;;;;;;0.82;0.43;;;10.70;99.90;;;;;;5074550;28;20111;-77
2023/08/09 02:56:26;;;;;;;0.45;0.40;;;10.70;99.90;;;;;;5082346;28;20040;-77
2023/08/09 02:58:52;;;;;;;0.50;0.40;;;10.70;99.90;;;;;;5090294;28;20079;-77
2023/08/09 03:01:21;;;;;;;;;;;10.70;99.90;;;;;;5077551;28;20057;-77
2023/08/09 03:03:48;;;;;;;0.40;0.30;;;10.70;99.90;;;;;;5103617;28;19989;-77
2023/08/09 03:06:14;;;;;;;0.40;0.40;;;10.70;99.90;;;;;;5085411;28;20040;-77
2023/08/09 03:08:40;;;;;;;0.43;0.43;;;10.70;99.90;;;;;;5091084;28;20387;-77
2023/08/09 03:11:05;;;;;;;0.57;0.47;;;10.70;99.90;;;;;;5115167;27;20143;-77
2023/08/09 03:13:31;;;;;;;0.73;0.40;;;10.70;99.90;;;;;;5090674;28;20031;-77
2023/08/09 03:15:57;;;;;;;1.60;0.60;;;10.70;99.90;;;;;;5073371;28;20046;-77
2023/08/09 03:18:22;;;;;;;0.40;0.40;;;10.70;99.90;;;;;;5089770;28;20040;-77
2023/08/09 03:20:48;;;;;;;1.30;0.50;;;10.70;99.90;;;;;;5074012;28;20471;-77
2023/08/09 03:23:14;;;;;;;0.70;0.50;;;10.70;99.90;;;;;;5073925;28;20052;-77
2023/08/09 03:25:40;;;;;;;0.50;0.50;;;10.70;99.90;;;;;;5071706;28;20517;-77
2023/08/09 03:28:06;;;;;;;1.23;0.60;;;10.70;99.90;;;;;;5089730;28;20036;-77
2023/08/09 03:30:31;;;;;;;0.73;0.40;;;10.70;99.90;;;;;;5106111;28;20032;-77
2023/08/09 03:32:58;;;;;;;0.38;0.35;;;10.60;99.90;;;;;;5081403;28;20466;-77
2023/08/09 03:35:23;;;;;;;0.65;0.50;;;10.60;99.90;;;;;;5084958;28;20055;-77
2023/08/09 03:37:49;;;;;;;1.00;0.75;;;10.60;99.90;;;;;;5090600;28;20368;-77
2023/08/09 03:40:16;;;;;;;1.10;0.50;;;10.60;99.90;;;;;;5090446;28;20089;-77
2023/08/09 03:42:42;;;;;;;0.57;0.40;;;10.50;99.90;;;;;;5087089;28;20047;-77
2023/08/09 03:45:08;;;;;;;0.55;0.50;;;10.50;99.90;;;;;;5089643;28;20036;-77
2023/08/09 03:47:36;;;;;;;;;;;10.50;99.90;;;;;;5087871;28;20075;-77
2023/08/09 03:50:04;;;;;;;0.82;0.50;;;10.50;99.90;;;;;;5076379;28;19924;-77
2023/08/09 03:52:30;;;;;;;0.70;0.50;;;10.50;99.90;;;;;;5082483;28;20475;-77
2023/08/09 03:54:56;;;;;;;0.63;0.55;;;10.50;99.90;;;;;;5072817;28;20051;-77
2023/08/09 03:57:22;;;;;;;0.95;0.50;;;10.40;99.90;;;;;;5089170;28;20450;-78
2023/08/09 03:59:49;;;;;;;0.70;0.60;;;10.40;99.90;;;;;;5072515;28;20039;-77
2023/08/09 04:02:15;;;;;;;1.55;0.52;;;10.40;99.90;;;;;;5070243;28;20436;-78
2023/08/09 04:04:41;;;;;;;1.00;0.65;;;10.40;99.90;;;;;;5084408;28;20040;-78
2023/08/09 04:07:07;;;;;;;1.42;0.88;;;10.50;99.90;;;;;;5071010;28;20146;-78
2023/08/09 04:09:33;;;;;;;1.42;0.55;;;10.40;99.90;;;;;;5089809;28;20032;-78
2023/08/09 04:11:59;;;;;;;0.80;0.60;;;10.40;99.90;;;;;;5086921;28;20077;-78
2023/08/09 04:14:26;;;;;;;;;;;10.40;99.90;;;;;;5089177;28;20040;-78
2023/08/09 04:16:51;;;;;;;1.03;0.63;;;10.40;99.90;;;;;;5086513;28;19969;-78
2023/08/09 04:19:17;;;;;;;1.85;0.40;;;10.40;99.90;;;;;;5088787;28;20055;-78
2023/08/09 04:21:43;;;;;;;1.83;0.70;;;10.40;99.90;;;;;;5087510;28;20487;-78
2023/08/09 04:24:12;;;;;;;0.70;0.40;;;10.40;99.90;;;;;;5089043;28;20047;-78
2023/08/09 04:26:38;;;;;;;0.82;0.60;;;10.40;99.90;;;;;;5089527;28;20870;-78
2023/08/09 04:29:04;;;;;;;0.65;0.60;;;10.40;99.90;;;;;;5090218;28;20066;-78
2023/08/09 04:31:29;;;;;;;0.40;0.40;;;10.40;99.90;;;;;;5088197;28;20510;-78
2023/08/09 04:33:55;;;;;;;0.77;0.60;;;10.40;99.90;;;;;;5122897;27;20040;-78
2023/08/09 04:36:21;;;;;;;0.98;0.40;;;10.40;99.90;;;;;;5088705;28;20064;-78
2023/08/09 04:38:47;;;;;;;0.85;0.50;;;10.40;99.90;;;;;;5071727;28;20070;-78
2023/08/09 04:41:12;;;;;;;0.90;0.50;;;10.40;99.90;;;;;;5071695;28;20048;-78
2023/08/09 04:43:43;;;;;;;1.20;0.70;;;10.50;99.90;;;;;;5087826;28;20055;-78
2023/08/09 04:46:13;;;;;;;1.48;0.50;;;10.50;99.90;;;;;;5104030;28;20049;-78
2023/08/09 04:48:40;;;;;;;1.23;0.60;;;10.50;99.90;;;;;;5072447;28;20420;-78
2023/08/09 04:51:07;;;;;;;1.65;0.65;;;10.60;99.90;;;;;;5089528;28;20040;-78
2023/08/09 04:53:33;;;;;;;1.15;0.63;;;10.60;99.90;;;;;;5089320;28;20483;-78
2023/08/09 04:55:58;;;;;;;1.20;0.65;;;10.60;99.90;;;;;;5071654;28;20114;-78
2023/08/09 04:58:24;;;;;;;1.33;0.60;;;10.70;99.90;;;;;;5086204;28;20049;-78
2023/08/09 05:00:50;;;;;;;0.88;0.50;;;10.80;99.90;;;;;;5098692;28;20039;-78
2023/08/09 05:03:15;;;;;;;0.38;0.32;;;10.80;99.90;;;;;;5074885;28;20164;-78
2023/08/09 05:05:41;;;;;;;0.70;0.40;;;10.80;99.90;;;;;;5089556;28;20040;-78
2023/08/09 05:08:07;;;;;;;0.88;0.60;;;10.90;99.90;;;;;;5085563;28;20048;-78
2023/08/09 05:10:35;;;;;;;0.75;0.40;;;11.00;99.90;;;;;;5070680;28;20111;-78
2023/08/09 05:13:00;;;;;;;0.77;0.60;;;11.00;99.90;;;;;;5086196;28;20119;-78
2023/08/09 05:15:26;;;;;;;2.30;0.60;;;11.00;99.90;;;;;;5054915;28;20435;-78
2023/08/09 05:17:52;;;;;;;1.02;0.70;;;11.10;99.90;;;;;;5084638;28;20032;-79
2023/08/09 05:20:17;;;;;;;1.27;0.65;;;11.20;99.90;;;;;;5068369;28;20475;-78
2023/08/09 05:22:44;;;;;;;1.42;0.80;;;11.30;99.90;;;;;;5086341;28;20047;-78
2023/08/09 05:25:11;;;;;;;;;;;11.30;99.90;;;;;;5074871;28;20040;-78
2023/08/09 05:27:36;;;;;;;1.55;0.93;;;11.40;99.90;;;;;;5064500;28;19966;-78
2023/08/09 05:30:04;;;;;;;1.63;0.77;;;11.50;99.90;;;;;;5087482;28;20036;-78
2023/08/09 05:32:30;;;;;;;1.92;0.88;;;11.60;99.90;;;;;;5083665;28;20556;-78
2023/08/09 05:34:55;;;;;;;1.20;0.80;;;11.60;99.90;;;;;;5087558;28;20931;-78
2023/08/09 05:37:21;;;;;;;1.23;0.80;;;11.70;99.90;;;;;;5088863;28;20079;-78
2023/08/09 05:39:47;;;;;;;1.27;0.80;;;11.80;99.90;;;;;;5086477;28;20074;-78
2023/08/09 05:42:12;;;;;;;2.72;0.90;;;11.90;99.90;;;;;;5088544;28;20142;-78
2023/08/09 05:44:38;;;;;;;1.30;0.82;;;11.90;99.90;;;;;;5087784;28;20094;-78
2023/08/09 05:47:04;;;;;;;1.23;0.80;;;12.00;99.90;;;;;;5070643;28;20048;-78
2023/08/09 05:49:30;;;;;;;2.83;1.00;;;12.10;99.90;;;;;;5086386;28;20044;-78
2023/08/09 05:51:56;;;;;;;2.35;1.00;;;12.20;99.90;;;;;;5087301;28;20047;-78
2023/08/09 05:54:21;;;;;;;1.13;1.00;;;12.30;99.90;;;;;;5113784;27;20119;-77
2023/08/09 05:56:47;;;;;;;1.05;0.80;;;12.40;99.90;;;;;;5078753;28;20040;-77
2023/08/09 05:59:13;;;;;;;1.40;0.82;;;12.50;99.90;;;;;;5088023;28;20044;-77
2023/08/09 06:01:39;;;;;;;1.02;0.85;;;12.60;99.90;;;;;;5088366;28;20056;-77
2023/08/09 06:04:05;;;;;;;1.25;0.70;;;12.70;99.90;;;;;;5088239;28;20123;-77
2023/08/09 06:06:31;;;;;;;2.20;0.90;;;12.80;99.90;;;;;;5055962;28;20483;-77
2023/08/09 06:08:57;;;;;;;0.85;0.63;;;12.90;99.90;;;;;;5060119;28;20047;-77
2023/08/09 06:11:23;;;;;;;0.95;0.60;;;13.00;99.90;;;;;;5078571;28;20044;-77
2023/08/09 06:13:49;;;;;;;1.35;0.70;;;13.10;99.90;;;;;;5077509;28;20062;-77
2023/08/09 06:16:15;;;;;;;1.17;0.60;;;13.20;99.90;;;;;;5090263;28;20044;-78
2023/08/09 06:18:41;;;;;;;2.13;0.77;;;13.30;99.90;;;;;;5086584;28;20143;-78
2023/08/09 06:21:06;;;;;;;1.63;0.70;;;13.40;99.90;;;;;;5088265;28;20502;-78
2023/08/09 06:23:32;;;;;;;0.82;0.57;;;13.50;99.90;;;;;;5121102;27;20047;-78
2023/08/09 06:25:58;;;;;;;2.35;0.70;;;13.60;99.90;;;;;;5073475;28;20044;-79
2023/08/09 06:28:24;;;;;;;2.20;0.90;;;13.70;99.90;;;;;;5074692;28;20039;-78
2023/08/09 06:30:50;;;;;;;1.15;0.63;;;13.80;99.90;;;;;;5083244;28;20089;-78
2023/08/09 06:33:16;;;;;;;1.30;0.50;;;14.00;99.90;;;;;;5088374;28;20044;-78
2023/08/09 06:35:42;;;;;;;1.45;0.60;;;14.20;99.90;;;;;;5085865;28;20058;-78
2023/08/09 06:38:07;;;;;;;2.22;0.80;;;14.30;99.90;;;;;;5087688;28;20047;-78
2023/08/09 06:40:33;;;;;;;2.42;0.90;;;14.40;99.90;;;;;;5072484;28;20097;-78
2023/08/09 06:42:59;;;;;;;3.03;0.93;;;14.60;99.90;;;;;;5074966;28;20123;-78
2023/08/09 06:45:25;;;;;;;1.98;0.80;;;14.70;96.40;;;;;;5090368;28;20044;-78
2023/08/09 06:47:50;;;;;;;3.00;0.60;;;14.80;99.90;;;;;;5090830;28;20051;-78
2023/08/09 06:50:16;;;;;;;1.23;0.60;;;15.00;99.90;;;;;;5089822;28;20044;-77
2023/08/09 06:52:42;;;;;;;2.55;0.80;;;15.10;67.70;;;;;;5108934;28;20079;-78
2023/08/09 06:55:09;;;;;;;1.85;0.88;;;15.20;99.90;;;;;;5071482;28;20144;-78
2023/08/09 06:57:35;;;;;;;1.80;0.80;;;15.30;50.30;;;;;;5089248;28;20424;-78
2023/08/09 07:00:05;;;;;;;2.17;0.90;;;15.40;99.90;;;;;;5088450;28;20055;-77
2023/08/09 07:02:33;;;;;;;1.60;0.80;;;15.50;99.90;;;;;;5054944;28;20054;-77
2023/08/09 07:05:01;;;;;;;2.22;0.80;;;15.60;1.00;;;;;;5121741;27;20054;-77
2023/08/09 07:07:26;;;;;;;1.05;0.68;;;15.70;1.00;;;;;;5087865;28;20493;-77
2023/08/09 07:09:52;;;;;;;1.05;0.57;;;15.90;99.90;;;;;;5086563;28;20047;-77
2023/08/09 07:12:22;;;;;;;2.28;0.70;;;16.00;40.80;;;;;;5078256;28;20044;-77
2023/08/09 07:14:48;;;;;;;2.15;0.50;;;16.20;99.90;;;;;;5085340;28;20615;-77
2023/08/09 07:17:13;;;;;;;2.03;0.68;;;16.30;93.30;;;;;;5087190;28;20041;-78
2023/08/09 07:19:39;;;;;;;2.00;0.80;;;16.40;99.90;;;;;;5071003;28;20516;-78
2023/08/09 07:22:05;;;;;;;2.65;0.88;;;16.40;99.90;;;;;;5089682;28;20048;-80
2023/08/09 07:24:31;;;;;;;2.05;0.73;;;16.50;99.90;;;;;;5090030;28;20078;-78
2023/08/09 07:26:56;;;;;;;1.85;0.80;;;16.50;99.90;;;;;;5091164;28;20078;-79
2023/08/09 07:29:22;;;;;;;2.10;0.90;;;16.70;99.90;;;;;;5090408;28;20051;-79
2023/08/09 07:31:48;;;;;;;3.53;0.93;;;16.80;99.90;;;;;;5105906;28;20047;-79
2023/08/09 07:34:14;;;;;;;2.38;0.82;;;16.80;39.40;;;;;;5069383;28;20436;-79
2023/08/09 07:36:40;;;;;;;2.75;0.73;;;16.90;1.00;;;;;;5090802;28;20456;-77
2023/08/09 07:39:09;;;;;;;3.17;1.25;;;17.00;99.90;;;;;;5071791;28;20078;-77
2023/08/09 07:41:35;;;;;;;2.13;0.70;;;17.10;99.90;;;;;;5090565;28;20055;-77
2023/08/09 07:44:00;;;;;;;;;;;17.20;99.90;;;;;;5090261;28;20043;-77
2023/08/09 07:46:27;;;;;;;2.38;0.70;;;17.30;1.00;;;;;;5087638;28;19916;-78
2023/08/09 07:48:53;;;;;;;2.67;0.90;;;17.30;1.00;;;;;;5089975;28;20396;-78
2023/08/09 07:51:19;;;;;;;3.45;0.95;;;17.60;1.00;;;;;;5088533;28;20056;-78
2023/08/09 07:53:45;;;;;;;1.20;0.65;;;17.60;99.90;;;;;;5073489;28;20122;-77
2023/08/09 07:56:11;;;;;;;;;;;17.70;1.00;;;;;;5088482;28;20044;-78
2023/08/09 07:58:37;;;;;;;1.98;0.80;;;17.60;99.90;;;;;;5088818;28;20072;-78
2023/08/09 08:01:04;;;;;;;2.22;0.90;;;17.60;99.90;;;;;;5089962;28;20051;-78
2023/08/09 08:03:31;;;;;;;2.95;0.80;;;17.80;99.90;;;;;;5078025;28;20078;-78
2023/08/09 08:05:57;;;;;;;3.53;1.00;;;17.80;99.90;;;;;;5089011;28;20052;-78
2023/08/09 08:08:23;;;;;;;1.75;0.68;;;17.90;99.90;;;;;;5086309;28;20047;-77
2023/08/09 08:10:48;;;;;;;;;;;17.90;99.90;;;;;;5088345;28;20054;-77
2023/08/09 08:13:14;;;;;;;2.75;0.80;;;17.90;99.90;;;;;;5069731;28;19924;-77
2023/08/09 08:15:40;;;;;;;;;;;18.10;99.90;;;;;;5072789;28;20079;-76
2023/08/09 08:18:06;;;;;;;1.65;0.68;;;18.20;99.90;;;;;;5086656;28;20383;-80
2023/08/09 08:20:32;;;;;;;4.30;0.98;;;18.30;99.90;;;;;;5084696;28;20048;-77
2023/08/09 08:22:58;;;;;;;2.35;0.70;;;18.30;99.90;;;;;;5087365;28;20044;-77
2023/08/09 08:25:24;;;;;;;;;;;18.40;99.90;;;;;;5104694;28;20079;-77
2023/08/09 08:27:50;;;;;;;2.28;0.70;;;18.60;99.90;;;;;;5083598;28;20028;-77
2023/08/09 08:30:19;;;;;;;2.15;0.70;;;18.60;1.00;;;;;;5068731;28;20047;-77
2023/08/09 08:32:48;;;;;;;2.65;0.85;;;18.70;99.90;;;;;;5072289;28;20048;-77
2023/08/09 08:35:19;;;;;;;2.28;0.73;;;18.70;99.90;;;;;;5089699;28;20131;-76
2023/08/09 08:37:46;;;;;;;3.33;0.68;;;18.80;1.00;;;;;;5089598;28;20123;-76
2023/08/09 08:40:17;;;;;;;1.60;0.60;;;18.90;99.90;;;;;;5072474;28;20040;-76
2023/08/09 08:42:44;;;;;;;2.20;0.57;;;19.10;99.90;;;;;;5089293;28;20078;-77
2023/08/09 08:45:11;;;;;;;2.22;0.68;;;19.20;1.00;;;;;;5089295;28;20118;-77
2023/08/09 08:47:41;;;;;;;1.40;0.80;;;18.90;99.90;;;;;;5089407;28;20044;-77
2023/08/09 08:50:09;;;;;;;1.77;0.90;;;18.80;99.90;;;;;;5075778;28;20072;-77
2023/08/09 08:52:40;;;;;;;1.67;0.60;;;18.80;1.00;;;;;;5076691;28;20465;-77
2023/08/09 08:55:09;;;;;;;0.95;0.57;;;19.10;1.00;;;;;;5089363;28;20082;-77
2023/08/09 08:57:35;;;;;;;2.25;0.82;;;19.30;99.90;;;;;;5089452;28;20058;-77
2023/08/09 09:00:08;;;;;;;1.33;0.77;;;19.70;1.00;;;;;;5089203;28;20043;-77
2023/08/09 09:02:38;;;;;;;2.88;0.77;;;19.50;99.90;;;;;;5072255;28;20122;-77
2023/08/09 09:05:06;;;;;;;3.97;1.00;;;19.10;99.90;;;;;;5085555;28;20488;-77
2023/08/09 09:07:32;;;;;;;2.95;0.80;;;18.70;99.90;;;;;;5069064;28;20134;-77
2023/08/09 09:09:58;;;;;;;;;;;18.70;1.00;;;;;;5083661;28;20072;-77
2023/08/09 09:12:24;;;;;;;1.90;0.70;;;18.90;1.00;;;;;;5077250;28;20003;-77
2023/08/09 09:14:53;;;;;;;1.55;0.80;;;19.20;1.00;;;;;;5075216;28;20153;-77
2023/08/09 09:17:20;;;;;;;1.60;0.73;;;19.20;99.90;;;;;;5089416;28;20127;-77
2023/08/09 09:19:46;;;;;;;1.30;0.55;;;19.40;1.00;;;;;;5089516;28;20044;-78
2023/08/09 09:22:27;;;;;;;2.00;0.57;;;19.30;1.00;;;;;;5072152;28;20409;-78
2023/08/09 09:24:53;;;;;;;1.25;0.70;;;19.10;99.90;;;;;;5089398;28;20032;-77
2023/08/09 09:27:26;;;;;;;2.47;0.70;;;19.00;99.90;;;;;;5089345;28;20044;-78
2023/08/09 09:29:52;;;;;;;2.72;0.82;;;18.70;99.90;;;;;;5088966;28;20040;-77
2023/08/09 09:32:20;;;;;;;;;;;18.50;1.00;;;;;;5077961;28;20050;-77
2023/08/09 09:34:46;;;;;;;2.00;0.70;;;18.40;1.00;;;;;;5088780;28;19923;-77
2023/08/09 09:37:15;;;;;;;;;;;18.50;1.30;;;;;;5072959;28;20036;-76
2023/08/09 09:39:43;;;;;;;2.45;0.70;;;18.90;1.00;;;;;;5123018;28;19935;-77
2023/08/09 09:42:11;;;;;;;2.35;0.77;;;19.30;99.90;;;;;;5087973;28;20510;-77
2023/08/09 09:44:36;;;;;;;1.45;0.60;;;19.50;99.90;;;;;;5077602;28;20032;-77
2023/08/09 09:47:02;;;;;;;;;;;19.40;99.90;;;;;;5076638;28;20051;-77
2023/08/09 09:49:28;;;;;;;2.30;0.80;;;19.40;99.90;;;;;;5091273;28;19923;-78
2023/08/09 09:51:56;;;;;;;1.17;0.50;;;19.30;99.90;;;;;;5063232;28;20479;-78
2023/08/09 09:54:22;;;;;;;1.23;0.60;;;19.20;99.90;;;;;;5092943;28;20070;-77
2023/08/09 09:56:48;;;;;;;1.55;0.57;;;19.10;99.90;;;;;;5092352;28;20079;-78
2023/08/09 09:59:14;;;;;;;;;;;19.10;99.90;;;;;;5093292;28;20083;-78
2023/08/09 10:01:44;;;;;;;2.78;0.70;;;18.90;99.90;;;;;;5092194;28;19924;-77
2023/08/09 10:04:11;;;;;;;2.65;0.80;;;18.80;99.90;;;;;;5092415;28;20076;-77
2023/08/09 10:06:42;;;;;;;1.58;0.70;;;18.70;99.90;;;;;;5089786;28;20082;-77
2023/08/09 10:09:09;;;;;;;1.25;0.82;;;18.80;1.00;;;;;;5081318;28;20137;-77
2023/08/09 10:11:36;;;;;;;1.00;0.52;;;19.10;99.90;;;;;;5092413;28;20121;-77
2023/08/09 10:14:07;;;;;;;1.80;0.63;;;19.50;99.90;;;;;;5068003;28;20437;-77
2023/08/09 10:16:35;;;;;;;0.85;0.50;;;19.30;99.90;;;;;;5086986;28;20044;-78
2023/08/09 10:19:04;;;;;;;2.25;0.77;;;19.30;99.90;;;;;;5092393;28;20044;-77
2023/08/09 10:21:31;;;;;;;2.40;0.75;;;19.40;99.90;;;;;;5092582;28;20044;-77
2023/08/09 10:24:17;;;;;;;1.75;0.85;;;20.10;99.90;;;;;;5089873;28;20079;-76
2023/08/09 10:26:45;;;;;;;2.33;0.73;;;20.20;99.90;;;;;;5075547;28;20036;-77
2023/08/09 10:29:21;;;;;;;2.08;0.88;;;20.10;99.90;;;;;;5117272;27;20086;-79
2023/08/09 10:31:51;;;;;;;2.65;0.80;;;19.80;99.90;;;;;;5087281;28;20050;-77
2023/08/09 10:34:37;;;;;;;1.85;0.60;;;19.70;99.90;;;;;;5093423;28;20124;-78
2023/08/09 10:37:05;;;;;;;2.00;0.60;;;19.60;99.90;;;;;;5088608;28;20043;-78
2023/08/09 10:39:32;;;;;;;1.30;0.60;;;19.30;99.90;;;;;;5091641;28;20118;-77
2023/08/09 10:42:08;;;;;;;1.23;0.60;;;19.30;99.90;;;;;;5091415;28;20465;-77
2023/08/09 10:44:45;;;;;;;1.27;0.70;;;19.50;99.90;;;;;;5087519;28;20079;-77
2023/08/09 10:47:12;;;;;;;1.17;0.60;;;19.90;99.90;;;;;;5071484;28;20048;-77
2023/08/09 10:49:47;;;;;;;1.58;0.70;;;19.70;99.90;;;;;;5090224;28;20063;-77
2023/08/09 10:52:18;;;;;;;0.80;0.60;;;19.40;99.90;;;;;;5090786;28;20042;-77
2023/08/09 10:54:45;;;;;;;1.63;0.70;;;19.80;99.90;;;;;;5085312;28;20093;-77
2023/08/09 10:57:16;;;;;;;1.35;0.70;;;19.90;99.90;;;;;;5086758;28;20040;-76
2023/08/09 10:59:46;;;;;;;0.60;0.47;;;20.10;99.90;;;;;;5082480;28;20522;-75
2023/08/09 11:02:15;;;;;;;2.13;1.00;;;20.20;99.90;;;;;;5089068;28;20471;-77
2023/08/09 11:04:43;;;;;;;1.65;0.88;;;20.30;99.90;;;;;;5089820;28;20493;-77
2023/08/09 11:07:19;;;;;;;2.33;0.80;;;20.50;99.90;;;;;;5085018;28;20044;-77
2023/08/09 11:09:45;;;;;;;1.17;0.80;;;20.00;99.90;;;;;;5089104;28;20055;-77
2023/08/09 11:12:14;;;;;;;;;;;20.00;99.90;;;;;;5085790;28;20513;-77
2023/08/09 11:14:40;;;;;;;2.20;0.80;;;20.50;99.90;;;;;;5122788;27;19924;-77
2023/08/09 11:17:12;;;;;;;1.55;0.70;;;20.40;76.60;;;;;;5093796;28;20046;-76
2023/08/09 11:19:37;;;;;;;1.90;0.82;;;20.40;51.00;;;;;;5090283;28;20044;-77
2023/08/09 11:22:03;;;;;;;1.90;0.77;;;20.50;74.00;;;;;;5073059;28;20052;-76
2023/08/09 11:24:31;;;;;;;2.83;0.70;;;21.00;98.60;;;;;;5090407;28;20075;-77
2023/08/09 11:26:58;;;;;;;1.40;0.80;;;20.70;60.20;;;;;;5123506;27;20051;-77
2023/08/09 11:29:26;;;;;;;1.30;0.68;;;20.70;99.90;;;;;;5102047;28;20059;-77
2023/08/09 11:31:55;;;;;;;2.85;0.90;;;20.40;99.90;;;;;;5088187;28;20066;-77
2023/08/09 11:34:22;;;;;;;1.60;0.70;;;20.70;99.90;;;;;;5087944;28;20052;-77
2023/08/09 11:36:50;;;;;;;2.95;0.80;;;20.90;99.90;;;;;;5088154;28;20430;-77
2023/08/09 11:39:17;;;;;;;2.28;0.70;;;20.60;99.90;;;;;;5089834;28;20036;-77
2023/08/09 11:41:57;;;;;;;1.58;0.80;;;20.40;99.90;;;;;;5090290;28;20108;-77
2023/08/09 11:44:30;;;;;;;2.72;0.98;;;20.10;99.90;;;;;;5087802;28;20079;-77
2023/08/09 11:46:57;;;;;;;1.40;0.60;;;19.80;99.90;;;;;;5087251;28;20052;-77
2023/08/09 11:49:30;;;;;;;1.77;0.68;;;19.80;99.90;;;;;;5090472;28;20109;-76
2023/08/09 11:51:57;;;;;;;3.17;0.80;;;20.00;99.90;;;;;;5068287;28;20391;-77
2023/08/09 11:54:23;;;;;;;2.42;0.90;;;19.90;99.90;;;;;;5088571;28;20043;-77
2023/08/09 11:56:50;;;;;;;3.33;0.88;;;19.70;99.90;;;;;;5079564;28;20040;-77
2023/08/09 11:59:18;;;;;;;1.15;0.60;;;19.60;99.90;;;;;;5086153;28;20044;-77
2023/08/09 12:01:49;;;;;;;1.52;0.65;;;19.60;99.90;;;;;;5072187;28;20052;-77
2023/08/09 12:04:19;;;;;;;3.13;1.10;;;19.40;99.90;;;;;;5089852;28;20052;-77
2023/08/09 12:06:56;;;;;;;3.70;1.00;;;19.20;1.00;;;;;;5084328;28;20483;-77
2023/08/09 12:09:30;;;;;;;;;;;19.00;1.00;;;;;;5080106;28;20123;-77
2023/08/09 12:12:17;;;;;;;2.47;1.10;;;18.90;1.00;;;;;;5073150;28;19946;-77
2023/08/09 12:14:51;;;;;;;4.30;1.00;;;18.80;20.30;;;;;;5086043;28;20055;-77
2023/08/09 12:17:25;;;;;;;2.40;1.00;;;18.80;20.00;;;;;;5065703;28;20077;-77
2023/08/09 12:19:53;;;;;;;2.42;1.00;;;19.00;14.30;;;;;;5116143;27;20040;-77
2023/08/09 12:22:19;;;;;;;2.53;0.80;;;19.10;1.00;;;;;;5086642;28;20036;-77
2023/08/09 12:24:44;;;;;;;2.58;0.75;;;19.10;1.00;;;;;;5086055;28;20079;-77
2023/08/09 12:27:10;;;;;;;;;;;19.10;99.90;;;;;;5071196;28;20086;-77
2023/08/09 12:29:36;;;;;;;1.50;0.88;;;19.40;1.00;;;;;;5085100;28;19924;-77
2023/08/09 12:32:03;;;;;;;;;;;20.00;99.90;;;;;;5086678;28;20071;-77
2023/08/09 12:34:30;;;;;;;3.47;0.80;;;20.30;99.90;;;;;;5069270;28;19969;-78
2023/08/09 12:36:55;;;;;;;1.73;0.70;;;20.10;99.90;;;;;;5085037;28;20043;-78
2023/08/09 12:39:21;;;;;;;;;;;19.70;99.90;;;;;;5065396;28;20390;-79
2023/08/09 12:41:47;;;;;;;2.05;0.70;;;19.60;99.90;;;;;;5069848;28;20263;-77
2023/08/09 12:44:12;;;;;;;;;;;19.30;99.90;;;;;;5071701;28;20044;-79
2023/08/09 12:46:42;;;;;;;1.50;0.70;;;19.40;99.90;;;;;;5116233;27;19946;-78
2023/08/09 12:49:08;;;;;;;1.42;0.60;;;20.00;99.90;;;;;;5087574;28;20510;-78
2023/08/09 12:51:34;;;;;;;;;;;20.30;99.90;;;;;;5084163;28;20045;-78
2023/08/09 12:54:00;;;;;;;2.25;0.80;;;20.50;99.90;;;;;;5108546;27;19967;-78
2023/08/09 12:56:27;;;;;;;1.92;0.70;;;20.50;99.90;;;;;;5083762;28;20043;-78